PWSweather.com
Personal Weather Stations
Station Observations
KCAOCEAN4
Jeffries Ranch, Oceanside, CA 92057

Jeffries RanchOceanside, CA 92057

Lat: 33.2463208, Lon: -117.25335080000002

Elevation: 207

Station Type: Davis Vantage Vue

jeffriesranchweather.com

High Low Average
Temperature 87.3°F30.7°C 67.1°F19.5°C 76.3°F24.6°C
Dew Point 69.4°F20.8°C 62.1°F16.7°C 66.0°F18.9°C
Winds 8.9 mph 14.3 kmh Calm Calm 2.0 mph S3.2 kmh S
Wind Gusts 15.0 mph24.1 kmh -- 5.0 mph8.0 kmh
Humidity 90% 46% 72%
Pressure 29.89 in1012.2 mb 29.79 in1008.8 mb -
Precipitation 0.00 in0.0 mm - -
Hour Temp Dew Point Humidity Winds Wind Gusts Pressure Precip Precip Rate Daily Precip Total
12:04 AM 71.8°F22.1°C 67.3°F19.6°C 86% Calm Calm -- 29.88 in1011.9 mb 0.00 in0.0 mm 0.00 in0.0 mm 0.00 in0.0 mm
12:14 AM 71.8°F22.1°C 67.3°F19.6°C 86% Calm Calm -- 29.88 in1011.9 mb 0.00 in0.0 mm 0.00 in0.0 mm 0.00 in0.0 mm
12:24 AM 71.8°F22.1°C 67.3°F19.6°C 86% Calm Calm -- 29.88 in1011.9 mb 0.00 in0.0 mm 0.00 in0.0 mm 0.00 in0.0 mm
12:34 AM 71.8°F22.1°C 67.3°F19.6°C 86% Calm Calm -- 29.88 in1011.9 mb 0.00 in0.0 mm 0.00 in0.0 mm 0.00 in0.0 mm
12:44 AM 71.4°F21.9°C 67.1°F19.5°C 86% Calm Calm -- 29.88 in1011.9 mb 0.00 in0.0 mm 0.00 in0.0 mm 0.00 in0.0 mm
12:54 AM 71.2°F21.8°C 66.9°F19.4°C 86% Calm Calm -- 29.87 in1011.5 mb 0.00 in0.0 mm 0.00 in0.0 mm 0.00 in0.0 mm
01:04 AM 71.2°F21.8°C 66.9°F19.4°C 86% Calm Calm -- 29.87 in1011.5 mb 0.00 in0.0 mm 0.00 in0.0 mm 0.00 in0.0 mm
01:14 AM 70.9°F21.6°C 66.2°F19.0°C 85% Calm Calm -- 29.87 in1011.5 mb 0.00 in0.0 mm 0.00 in0.0 mm 0.00 in0.0 mm
01:24 AM 70.9°F21.6°C 66.6°F19.2°C 86% Calm Calm -- 29.87 in1011.5 mb 0.00 in0.0 mm 0.00 in0.0 mm 0.00 in0.0 mm
01:34 AM 70.5°F21.4°C 66.2°F19.0°C 86% Calm Calm -- 29.87 in1011.5 mb 0.00 in0.0 mm 0.00 in0.0 mm 0.00 in0.0 mm
01:44 AM 70.5°F21.4°C 66.2°F19.0°C 86% Calm Calm -- 29.87 in1011.5 mb 0.00 in0.0 mm 0.00 in0.0 mm 0.00 in0.0 mm
01:54 AM 70.3°F21.3°C 66.0°F18.9°C 86% Calm Calm -- 29.86 in1011.2 mb 0.00 in0.0 mm 0.00 in0.0 mm 0.00 in0.0 mm
02:04 AM 70.0°F21.1°C 65.7°F18.7°C 86% Calm Calm -- 29.86 in1011.2 mb 0.00 in0.0 mm 0.00 in0.0 mm 0.00 in0.0 mm
02:14 AM 69.8°F21.0°C 65.5°F18.6°C 86% Calm Calm -- 29.86 in1011.2 mb 0.00 in0.0 mm 0.00 in0.0 mm 0.00 in0.0 mm
02:24 AM 69.4°F20.8°C 65.1°F18.4°C 86% Calm Calm -- 29.86 in1011.2 mb 0.00 in0.0 mm 0.00 in0.0 mm 0.00 in0.0 mm
02:34 AM 69.4°F20.8°C 65.5°F18.6°C 87% Calm Calm -- 29.86 in1011.2 mb 0.00 in0.0 mm 0.00 in0.0 mm 0.00 in0.0 mm
02:44 AM 69.6°F20.9°C 65.7°F18.7°C 87% Calm Calm -- 29.85 in1010.8 mb 0.00 in0.0 mm 0.00 in0.0 mm 0.00 in0.0 mm
02:54 AM 69.4°F20.8°C 65.1°F18.4°C 86% Calm Calm -- 29.85 in1010.8 mb 0.00 in0.0 mm 0.00 in0.0 mm 0.00 in0.0 mm
03:04 AM 69.1°F20.6°C 64.8°F18.2°C 86% Calm Calm -- 29.85 in1010.8 mb 0.00 in0.0 mm 0.00 in0.0 mm 0.00 in0.0 mm
03:14 AM 69.1°F20.6°C 65.1°F18.4°C 87% Calm Calm -- 29.85 in1010.8 mb 0.00 in0.0 mm 0.00 in0.0 mm 0.00 in0.0 mm
03:24 AM 68.7°F20.4°C 64.8°F18.2°C 87% Calm Calm -- 29.85 in1010.8 mb 0.00 in0.0 mm 0.00 in0.0 mm 0.00 in0.0 mm
03:34 AM 68.5°F20.3°C 64.8°F18.2°C 88% Calm Calm -- 29.85 in1010.8 mb 0.00 in0.0 mm 0.00 in0.0 mm 0.00 in0.0 mm
03:44 AM 68.5°F20.3°C 64.8°F18.2°C 88% Calm Calm -- 29.85 in1010.8 mb 0.00 in0.0 mm 0.00 in0.0 mm 0.00 in0.0 mm
03:54 AM 68.5°F20.3°C 64.8°F18.2°C 88% Calm Calm -- 29.85 in1010.8 mb 0.00 in0.0 mm 0.00 in0.0 mm 0.00 in0.0 mm
04:04 AM 68.7°F20.4°C 64.8°F18.2°C 87% Calm Calm -- 29.85 in1010.8 mb 0.00 in0.0 mm 0.00 in0.0 mm 0.00 in0.0 mm
04:14 AM 68.5°F20.3°C 64.6°F18.1°C 87% Calm Calm -- 29.85 in1010.8 mb 0.00 in0.0 mm 0.00 in0.0 mm 0.00 in0.0 mm
04:24 AM 68.4°F20.2°C 64.6°F18.1°C 88% Calm Calm -- 29.85 in1010.8 mb 0.00 in0.0 mm 0.00 in0.0 mm 0.00 in0.0 mm
04:34 AM 68.0°F20.0°C 64.4°F18.0°C 88% Calm Calm -- 29.85 in1010.8 mb 0.00 in0.0 mm 0.00 in0.0 mm 0.00 in0.0 mm
04:44 AM 67.8°F19.9°C 64.2°F17.9°C 88% Calm Calm -- 29.85 in1010.8 mb 0.00 in0.0 mm 0.00 in0.0 mm 0.00 in0.0 mm
04:54 AM 67.8°F19.9°C 64.4°F18.0°C 89% Calm Calm -- 29.85 in1010.8 mb 0.00 in0.0 mm 0.00 in0.0 mm 0.00 in0.0 mm
05:04 AM 67.6°F19.8°C 64.2°F17.9°C 89% Calm Calm -- 29.85 in1010.8 mb 0.00 in0.0 mm 0.00 in0.0 mm 0.00 in0.0 mm
05:14 AM 67.6°F19.8°C 64.2°F17.9°C 89% Calm Calm -- 29.85 in1010.8 mb 0.00 in0.0 mm 0.00 in0.0 mm 0.00 in0.0 mm
05:24 AM 67.6°F19.8°C 64.2°F17.9°C 89% Calm Calm -- 29.86 in1011.2 mb 0.00 in0.0 mm 0.00 in0.0 mm 0.00 in0.0 mm
05:34 AM 67.6°F19.8°C 64.6°F18.1°C 90% Calm Calm -- 29.86 in1011.2 mb 0.00 in0.0 mm 0.00 in0.0 mm 0.00 in0.0 mm
05:44 AM 67.5°F19.7°C 64.4°F18.0°C 90% Calm Calm -- 29.86 in1011.2 mb 0.00 in0.0 mm 0.00 in0.0 mm 0.00 in0.0 mm
05:54 AM 67.3°F19.6°C 64.2°F17.9°C 90% Calm Calm -- 29.86 in1011.2 mb 0.00 in0.0 mm 0.00 in0.0 mm 0.00 in0.0 mm
06:04 AM 67.5°F19.7°C 64.4°F18.0°C 90% Calm Calm -- 29.87 in1011.5 mb 0.00 in0.0 mm 0.00 in0.0 mm 0.00 in0.0 mm
06:14 AM 67.1°F19.5°C 63.7°F17.6°C 89% Calm Calm -- 29.88 in1011.9 mb 0.00 in0.0 mm 0.00 in0.0 mm 0.00 in0.0 mm
06:24 AM 67.6°F19.8°C 64.2°F17.9°C 89% Calm Calm -- 29.88 in1011.9 mb 0.00 in0.0 mm 0.00 in0.0 mm 0.00 in0.0 mm
06:34 AM 68.0°F20.0°C 64.6°F18.1°C 89% Calm Calm -- 29.88 in1011.9 mb 0.00 in0.0 mm 0.00 in0.0 mm 0.00 in0.0 mm
06:44 AM 67.8°F19.9°C 64.4°F18.0°C 89% Calm Calm -- 29.87 in1011.5 mb 0.00 in0.0 mm 0.00 in0.0 mm 0.00 in0.0 mm
06:54 AM 68.2°F20.1°C 64.4°F18.0°C 88% Calm Calm -- 29.88 in1011.9 mb 0.00 in0.0 mm 0.00 in0.0 mm 0.00 in0.0 mm
07:04 AM 68.4°F20.2°C 64.4°F18.0°C 87% 0.9 mph E1.4 kmh E 3.0 mph4.8 kmh 29.88 in1011.9 mb 0.00 in0.0 mm 0.00 in0.0 mm 0.00 in0.0 mm
07:14 AM 69.3°F20.7°C 64.9°F18.3°C 86% 0.9 mph ENE1.4 kmh ENE 2.9 mph4.7 kmh 29.88 in1011.9 mb 0.00 in0.0 mm 0.00 in0.0 mm 0.00 in0.0 mm
07:24 AM 70.5°F21.4°C 66.2°F19.0°C 86% Calm Calm 0.9 mph1.4 kmh 29.88 in1011.9 mb 0.00 in0.0 mm 0.00 in0.0 mm 0.00 in0.0 mm
07:34 AM 72.9°F22.7°C 68.0°F20.0°C 85% Calm Calm 1.0 mph1.6 kmh 29.88 in1011.9 mb 0.00 in0.0 mm 0.00 in0.0 mm 0.00 in0.0 mm
07:44 AM 73.2°F22.9°C 68.7°F20.4°C 86% Calm Calm 0.9 mph1.4 kmh 29.89 in1012.2 mb 0.00 in0.0 mm 0.00 in0.0 mm 0.00 in0.0 mm
07:54 AM 74.1°F23.4°C 68.5°F20.3°C 83% Calm Calm 0.9 mph1.4 kmh 29.89 in1012.2 mb 0.00 in0.0 mm 0.00 in0.0 mm 0.00 in0.0 mm
08:04 AM 73.9°F23.3°C 68.4°F20.2°C 83% Calm Calm 2.0 mph3.2 kmh 29.89 in1012.2 mb 0.00 in0.0 mm 0.00 in0.0 mm 0.00 in0.0 mm
08:14 AM 74.7°F23.7°C 68.7°F20.4°C 82% Calm Calm 2.0 mph3.2 kmh 29.88 in1011.9 mb 0.00 in0.0 mm 0.00 in0.0 mm 0.00 in0.0 mm
08:24 AM 74.8°F23.8°C 69.3°F20.7°C 83% 0.9 mph N1.4 kmh N 2.0 mph3.2 kmh 29.88 in1011.9 mb 0.00 in0.0 mm 0.00 in0.0 mm 0.00 in0.0 mm
08:34 AM 75.7°F24.3°C 69.4°F20.8°C 81% 0.9 mph NNE1.4 kmh NNE 4.0 mph6.4 kmh 29.88 in1011.9 mb 0.00 in0.0 mm 0.00 in0.0 mm 0.00 in0.0 mm
08:44 AM 76.1°F24.5°C 69.1°F20.6°C 79% Calm Calm 2.9 mph4.7 kmh 29.88 in1011.9 mb 0.00 in0.0 mm 0.00 in0.0 mm 0.00 in0.0 mm
08:54 AM 77.2°F25.1°C 69.4°F20.8°C 77% Calm Calm 2.0 mph3.2 kmh 29.89 in1012.2 mb 0.00 in0.0 mm 0.00 in0.0 mm 0.00 in0.0 mm
09:04 AM 77.9°F25.5°C 68.9°F20.5°C 74% 0.9 mph WNW1.4 kmh WNW 3.0 mph4.8 kmh 29.89 in1012.2 mb 0.00 in0.0 mm 0.00 in0.0 mm 0.00 in0.0 mm
09:14 AM 79.2°F26.2°C 68.5°F20.3°C 70% 0.9 mph SW1.4 kmh SW 2.9 mph4.7 kmh 29.89 in1012.2 mb 0.00 in0.0 mm 0.00 in0.0 mm 0.00 in0.0 mm
09:24 AM 79.2°F26.2°C 66.4°F19.1°C 65% 2.0 mph WSW3.2 kmh WSW 4.0 mph6.4 kmh 29.88 in1011.9 mb 0.00 in0.0 mm 0.00 in0.0 mm 0.00 in0.0 mm
09:34 AM 80.1°F26.7°C 64.9°F18.3°C 60% 0.9 mph SW1.4 kmh SW 4.0 mph6.4 kmh 29.89 in1012.2 mb 0.00 in0.0 mm 0.00 in0.0 mm 0.00 in0.0 mm
09:44 AM 80.8°F27.1°C 65.7°F18.7°C 60% 2.9 mph WNW4.7 kmh WNW 6.0 mph9.7 kmh 29.89 in1012.2 mb 0.00 in0.0 mm 0.00 in0.0 mm 0.00 in0.0 mm
09:54 AM 81.7°F27.6°C 66.4°F19.1°C 60% 2.9 mph WNW4.7 kmh WNW 6.0 mph9.7 kmh 29.88 in1011.9 mb 0.00 in0.0 mm 0.00 in0.0 mm 0.00 in0.0 mm
10:04 AM 82.4°F28.0°C 65.7°F18.7°C 57% 2.9 mph NW4.7 kmh NW 6.9 mph11.1 kmh 29.88 in1011.9 mb 0.00 in0.0 mm 0.00 in0.0 mm 0.00 in0.0 mm
10:14 AM 82.2°F27.9°C 64.4°F18.0°C 55% 4.0 mph NW6.4 kmh NW 8.1 mph13.0 kmh 29.88 in1011.9 mb 0.00 in0.0 mm 0.00 in0.0 mm 0.00 in0.0 mm
10:24 AM 82.8°F28.2°C 64.4°F18.0°C 54% 4.9 mph WNW7.9 kmh WNW 8.1 mph13.0 kmh 29.88 in1011.9 mb 0.00 in0.0 mm 0.00 in0.0 mm 0.00 in0.0 mm
10:34 AM 84.2°F29.0°C 64.0°F17.8°C 51% 2.9 mph WNW4.7 kmh WNW 6.9 mph11.1 kmh 29.88 in1011.9 mb 0.00 in0.0 mm 0.00 in0.0 mm 0.00 in0.0 mm
10:44 AM 83.8°F28.8°C 68.5°F20.3°C 60% 4.9 mph WNW7.9 kmh WNW 10.1 mph16.3 kmh 29.88 in1011.9 mb 0.00 in0.0 mm 0.00 in0.0 mm 0.00 in0.0 mm
10:54 AM 83.5°F28.6°C 68.5°F20.3°C 61% 6.0 mph WNW9.7 kmh WNW 11.0 mph17.7 kmh 29.88 in1011.9 mb 0.00 in0.0 mm 0.00 in0.0 mm 0.00 in0.0 mm
11:04 AM 83.7°F28.7°C 67.8°F19.9°C 59% 6.0 mph WSW9.7 kmh WSW 11.0 mph17.7 kmh 29.88 in1011.9 mb 0.00 in0.0 mm 0.00 in0.0 mm 0.00 in0.0 mm
11:14 AM 84.0°F28.9°C 66.6°F19.2°C 56% 4.0 mph WNW6.4 kmh WNW 10.1 mph16.3 kmh 29.88 in1011.9 mb 0.00 in0.0 mm 0.00 in0.0 mm 0.00 in0.0 mm
11:24 AM 84.2°F29.0°C 66.2°F19.0°C 55% 4.9 mph NW7.9 kmh NW 8.9 mph14.3 kmh 29.87 in1011.5 mb 0.00 in0.0 mm 0.00 in0.0 mm 0.00 in0.0 mm
11:34 AM 84.4°F29.1°C 66.4°F19.1°C 55% 4.0 mph WSW6.4 kmh WSW 8.9 mph14.3 kmh 29.87 in1011.5 mb 0.00 in0.0 mm 0.00 in0.0 mm 0.00 in0.0 mm
11:44 AM 84.6°F29.2°C 67.1°F19.5°C 56% 4.0 mph WNW6.4 kmh WNW 10.1 mph16.3 kmh 29.86 in1011.2 mb 0.00 in0.0 mm 0.00 in0.0 mm 0.00 in0.0 mm
11:54 AM 84.7°F29.3°C 66.7°F19.3°C 55% 4.9 mph WNW7.9 kmh WNW 9.0 mph14.5 kmh 29.86 in1011.2 mb 0.00 in0.0 mm 0.00 in0.0 mm 0.00 in0.0 mm
12:04 PM 84.7°F29.3°C 65.7°F18.7°C 53% 4.9 mph WNW7.9 kmh WNW 8.1 mph13.0 kmh 29.86 in1011.2 mb 0.00 in0.0 mm 0.00 in0.0 mm 0.00 in0.0 mm
12:14 PM 85.3°F29.6°C 65.7°F18.7°C 52% 4.0 mph W6.4 kmh W 9.0 mph14.5 kmh 29.85 in1010.8 mb 0.00 in0.0 mm 0.00 in0.0 mm 0.00 in0.0 mm
12:24 PM 86.4°F30.2°C 66.0°F18.9°C 51% 2.9 mph W4.7 kmh W 9.0 mph14.5 kmh 29.85 in1010.8 mb 0.00 in0.0 mm 0.00 in0.0 mm 0.00 in0.0 mm
12:34 PM 86.4°F30.2°C 66.0°F18.9°C 51% 4.0 mph SW6.4 kmh SW 8.1 mph13.0 kmh 29.84 in1010.5 mb 0.00 in0.0 mm 0.00 in0.0 mm 0.00 in0.0 mm
12:44 PM 86.9°F30.5°C 64.2°F17.9°C 47% 6.0 mph W9.7 kmh W 11.0 mph17.7 kmh 29.84 in1010.5 mb 0.00 in0.0 mm 0.00 in0.0 mm 0.00 in0.0 mm
12:54 PM 87.3°F30.7°C 64.6°F18.1°C 47% 6.9 mph WSW11.1 kmh WSW 15.0 mph24.1 kmh 29.84 in1010.5 mb 0.00 in0.0 mm 0.00 in0.0 mm 0.00 in0.0 mm
01:04 PM 87.1°F30.6°C 64.9°F18.3°C 48% 6.0 mph SE9.7 kmh SE 14.1 mph22.7 kmh 29.84 in1010.5 mb 0.00 in0.0 mm 0.00 in0.0 mm 0.00 in0.0 mm
01:14 PM 86.7°F30.4°C 63.5°F17.5°C 46% 6.0 mph WSW9.7 kmh WSW 12.1 mph19.5 kmh 29.84 in1010.5 mb 0.00 in0.0 mm 0.00 in0.0 mm 0.00 in0.0 mm
01:24 PM 86.2°F30.1°C 65.8°F18.8°C 51% 6.9 mph WNW11.1 kmh WNW 12.1 mph19.5 kmh 29.84 in1010.5 mb 0.00 in0.0 mm 0.00 in0.0 mm 0.00 in0.0 mm
01:34 PM 85.6°F29.8°C 66.6°F19.2°C 53% 6.0 mph S9.7 kmh S 12.1 mph19.5 kmh 29.84 in1010.5 mb 0.00 in0.0 mm 0.00 in0.0 mm 0.00 in0.0 mm
01:44 PM 85.3°F29.6°C 66.7°F19.3°C 54% 6.0 mph WSW9.7 kmh WSW 12.1 mph19.5 kmh 29.83 in1010.2 mb 0.00 in0.0 mm 0.00 in0.0 mm 0.00 in0.0 mm
01:54 PM 84.7°F29.3°C 66.7°F19.3°C 55% 6.9 mph WSW11.1 kmh WSW 12.1 mph19.5 kmh 29.83 in1010.2 mb 0.00 in0.0 mm 0.00 in0.0 mm 0.00 in0.0 mm
02:04 PM 85.5°F29.7°C 66.9°F19.4°C 54% 4.9 mph W7.9 kmh W 13.0 mph20.9 kmh 29.83 in1010.2 mb 0.00 in0.0 mm 0.00 in0.0 mm 0.00 in0.0 mm
02:14 PM 84.7°F29.3°C 66.7°F19.3°C 55% 8.1 mph NW13.0 kmh NW 13.0 mph20.9 kmh 29.83 in1010.2 mb 0.00 in0.0 mm 0.00 in0.0 mm 0.00 in0.0 mm
02:24 PM 84.4°F29.1°C 65.8°F18.8°C 54% 6.9 mph NW11.1 kmh NW 14.1 mph22.7 kmh 29.83 in1010.2 mb 0.00 in0.0 mm 0.00 in0.0 mm 0.00 in0.0 mm
02:34 PM 83.8°F28.8°C 64.4°F18.0°C 52% 8.9 mph SW14.3 kmh SW 15.0 mph24.1 kmh 29.82 in1009.8 mb 0.00 in0.0 mm 0.00 in0.0 mm 0.00 in0.0 mm
02:44 PM 83.5°F28.6°C 64.0°F17.8°C 52% 8.1 mph W13.0 kmh W 15.0 mph24.1 kmh 29.82 in1009.8 mb 0.00 in0.0 mm 0.00 in0.0 mm 0.00 in0.0 mm
02:54 PM 83.5°F28.6°C 64.6°F18.1°C 53% 8.1 mph SW13.0 kmh SW 14.1 mph22.7 kmh 29.82 in1009.8 mb 0.00 in0.0 mm 0.00 in0.0 mm 0.00 in0.0 mm
03:04 PM 83.1°F28.4°C 64.2°F17.9°C 53% 8.9 mph W14.3 kmh W 14.1 mph22.7 kmh 29.82 in1009.8 mb 0.00 in0.0 mm 0.00 in0.0 mm 0.00 in0.0 mm
03:14 PM 83.1°F28.4°C 62.1°F16.7°C 49% 8.9 mph WSW14.3 kmh WSW 15.0 mph24.1 kmh 29.81 in1009.5 mb 0.00 in0.0 mm 0.00 in0.0 mm 0.00 in0.0 mm
03:24 PM 82.8°F28.2°C 63.9°F17.7°C 53% 6.9 mph WSW11.1 kmh WSW 14.1 mph22.7 kmh 29.82 in1009.8 mb 0.00 in0.0 mm 0.00 in0.0 mm 0.00 in0.0 mm
03:34 PM 83.1°F28.4°C 65.8°F18.8°C 56% 6.9 mph NNW11.1 kmh NNW 14.0 mph22.5 kmh 29.82 in1009.8 mb 0.00 in0.0 mm 0.00 in0.0 mm 0.00 in0.0 mm
03:44 PM 83.1°F28.4°C 65.3°F18.5°C 55% 6.0 mph W9.7 kmh W 13.0 mph20.9 kmh 29.81 in1009.5 mb 0.00 in0.0 mm 0.00 in0.0 mm 0.00 in0.0 mm
03:54 PM 82.6°F28.1°C 66.7°F19.3°C 59% 6.9 mph W11.1 kmh W 13.0 mph20.9 kmh 29.81 in1009.5 mb 0.00 in0.0 mm 0.00 in0.0 mm 0.00 in0.0 mm
04:04 PM 82.6°F28.1°C 67.3°F19.6°C 60% 6.9 mph W11.1 kmh W 12.1 mph19.5 kmh 29.82 in1009.8 mb 0.00 in0.0 mm 0.00 in0.0 mm 0.00 in0.0 mm
04:14 PM 82.4°F28.0°C 68.0°F20.0°C 62% 4.9 mph WSW7.9 kmh WSW 12.1 mph19.5 kmh 29.81 in1009.5 mb 0.00 in0.0 mm 0.00 in0.0 mm 0.00 in0.0 mm
04:24 PM 82.2°F27.9°C 66.0°F18.9°C 58% 4.9 mph W7.9 kmh W 11.0 mph17.7 kmh 29.81 in1009.5 mb 0.00 in0.0 mm 0.00 in0.0 mm 0.00 in0.0 mm
04:34 PM 81.3°F27.4°C 66.6°F19.2°C 61% 6.9 mph WSW11.1 kmh WSW 12.1 mph19.5 kmh 29.81 in1009.5 mb 0.00 in0.0 mm 0.00 in0.0 mm 0.00 in0.0 mm
04:44 PM 81.7°F27.6°C 64.9°F18.3°C 57% 6.0 mph W9.7 kmh W 10.1 mph16.3 kmh 29.80 in1009.1 mb 0.00 in0.0 mm 0.00 in0.0 mm 0.00 in0.0 mm
04:54 PM 82.8°F28.2°C 66.6°F19.2°C 58% 4.9 mph W7.9 kmh W 10.1 mph16.3 kmh 29.80 in1009.1 mb 0.00 in0.0 mm 0.00 in0.0 mm 0.00 in0.0 mm
05:04 PM 82.2°F27.9°C 64.9°F18.3°C 56% 4.9 mph SSW7.9 kmh SSW 10.1 mph16.3 kmh 29.79 in1008.8 mb 0.00 in0.0 mm 0.00 in0.0 mm 0.00 in0.0 mm
05:14 PM 82.4°F28.0°C 64.0°F17.8°C 54% 4.0 mph W6.4 kmh W 10.1 mph16.3 kmh 29.79 in1008.8 mb 0.00 in0.0 mm 0.00 in0.0 mm 0.00 in0.0 mm
05:24 PM 82.8°F28.2°C 63.9°F17.7°C 53% 4.0 mph WSW6.4 kmh WSW 11.0 mph17.7 kmh 29.80 in1009.1 mb 0.00 in0.0 mm 0.00 in0.0 mm 0.00 in0.0 mm
05:34 PM 84.2°F29.0°C 65.7°F18.7°C 54% 2.9 mph WSW4.7 kmh WSW 8.9 mph14.3 kmh 29.80 in1009.1 mb 0.00 in0.0 mm 0.00 in0.0 mm 0.00 in0.0 mm
05:44 PM 83.5°F28.6°C 63.0°F17.2°C 50% 4.9 mph WSW7.9 kmh WSW 8.9 mph14.3 kmh 29.80 in1009.1 mb 0.00 in0.0 mm 0.00 in0.0 mm 0.00 in0.0 mm
05:54 PM 82.4°F28.0°C 63.0°F17.2°C 52% 6.0 mph WSW9.7 kmh WSW 13.0 mph20.9 kmh 29.80 in1009.1 mb 0.00 in0.0 mm 0.00 in0.0 mm 0.00 in0.0 mm
06:04 PM 82.6°F28.1°C 63.1°F17.3°C 52% 4.9 mph WSW7.9 kmh WSW 10.1 mph16.3 kmh 29.80 in1009.1 mb 0.00 in0.0 mm 0.00 in0.0 mm 0.00 in0.0 mm
06:14 PM 81.1°F27.3°C 64.0°F17.8°C 56% 4.9 mph WSW7.9 kmh WSW 12.1 mph19.5 kmh 29.80 in1009.1 mb 0.00 in0.0 mm 0.00 in0.0 mm 0.00 in0.0 mm
06:24 PM 80.6°F27.0°C 63.5°F17.5°C 56% 4.0 mph SW6.4 kmh SW 10.1 mph16.3 kmh 29.81 in1009.5 mb 0.00 in0.0 mm 0.00 in0.0 mm 0.00 in0.0 mm
06:34 PM 79.5°F26.4°C 63.9°F17.7°C 59% 4.9 mph WSW7.9 kmh WSW 10.1 mph16.3 kmh 29.81 in1009.5 mb 0.00 in0.0 mm 0.00 in0.0 mm 0.00 in0.0 mm
06:44 PM 79.2°F26.2°C 65.5°F18.6°C 63% 4.0 mph S6.4 kmh S 9.0 mph14.5 kmh 29.81 in1009.5 mb 0.00 in0.0 mm 0.00 in0.0 mm 0.00 in0.0 mm
06:54 PM 79.5°F26.4°C 64.9°F18.3°C 61% 2.0 mph SE3.2 kmh SE 6.9 mph11.1 kmh 29.81 in1009.5 mb 0.00 in0.0 mm 0.00 in0.0 mm 0.00 in0.0 mm
07:04 PM 79.7°F26.5°C 64.0°F17.8°C 59% 2.0 mph SW3.2 kmh SW 6.9 mph11.1 kmh 29.81 in1009.5 mb 0.00 in0.0 mm 0.00 in0.0 mm 0.00 in0.0 mm
07:14 PM 78.4°F25.8°C 64.8°F18.2°C 63% 2.0 mph WSW3.2 kmh WSW 6.0 mph9.7 kmh 29.81 in1009.5 mb 0.00 in0.0 mm 0.00 in0.0 mm 0.00 in0.0 mm
07:24 PM 77.7°F25.4°C 65.8°F18.8°C 67% 2.9 mph WSW4.7 kmh WSW 7.0 mph11.3 kmh 29.82 in1009.8 mb 0.00 in0.0 mm 0.00 in0.0 mm 0.00 in0.0 mm
07:34 PM 77.0°F25.0°C 66.9°F19.4°C 71% 2.0 mph WSW3.2 kmh WSW 6.0 mph9.7 kmh 29.81 in1009.5 mb 0.00 in0.0 mm 0.00 in0.0 mm 0.00 in0.0 mm
07:44 PM 75.9°F24.4°C 67.1°F19.5°C 74% 2.0 mph WSW3.2 kmh WSW 6.0 mph9.7 kmh 29.81 in1009.5 mb 0.00 in0.0 mm 0.00 in0.0 mm 0.00 in0.0 mm
07:54 PM 75.6°F24.2°C 67.5°F19.7°C 76% 0.9 mph WSW1.4 kmh WSW 2.9 mph4.7 kmh 29.81 in1009.5 mb 0.00 in0.0 mm 0.00 in0.0 mm 0.00 in0.0 mm
08:04 PM 75.0°F23.9°C 67.3°F19.6°C 77% 2.0 mph WNW3.2 kmh WNW 2.9 mph4.7 kmh 29.81 in1009.5 mb 0.00 in0.0 mm 0.00 in0.0 mm 0.00 in0.0 mm
08:14 PM 74.8°F23.8°C 67.8°F19.9°C 79% 0.9 mph S1.4 kmh S 2.9 mph4.7 kmh 29.82 in1009.8 mb 0.00 in0.0 mm 0.00 in0.0 mm 0.00 in0.0 mm
08:24 PM 74.8°F23.8°C 67.5°F19.7°C 78% 0.9 mph SW1.4 kmh SW 6.0 mph9.7 kmh 29.83 in1010.2 mb 0.00 in0.0 mm 0.00 in0.0 mm 0.00 in0.0 mm
08:34 PM 74.8°F23.8°C 67.5°F19.7°C 78% 2.0 mph SW3.2 kmh SW 6.0 mph9.7 kmh 29.83 in1010.2 mb 0.00 in0.0 mm 0.00 in0.0 mm 0.00 in0.0 mm
08:44 PM 74.5°F23.6°C 67.5°F19.7°C 79% 2.0 mph W3.2 kmh W 6.0 mph9.7 kmh 29.84 in1010.5 mb 0.00 in0.0 mm 0.00 in0.0 mm 0.00 in0.0 mm
08:54 PM 74.3°F23.5°C 67.3°F19.6°C 79% 2.0 mph SSW3.2 kmh SSW 6.0 mph9.7 kmh 29.84 in1010.5 mb 0.00 in0.0 mm 0.00 in0.0 mm 0.00 in0.0 mm
09:04 PM 73.9°F23.3°C 67.1°F19.5°C 79% 2.9 mph SW4.7 kmh SW 8.1 mph13.0 kmh 29.85 in1010.8 mb 0.00 in0.0 mm 0.00 in0.0 mm 0.00 in0.0 mm
09:14 PM 73.6°F23.1°C 67.1°F19.5°C 80% 2.9 mph WSW4.7 kmh WSW 6.0 mph9.7 kmh 29.85 in1010.8 mb 0.00 in0.0 mm 0.00 in0.0 mm 0.00 in0.0 mm
09:24 PM 73.0°F22.8°C 67.3°F19.6°C 82% 2.9 mph W4.7 kmh W 8.1 mph13.0 kmh 29.86 in1011.2 mb 0.00 in0.0 mm 0.00 in0.0 mm 0.00 in0.0 mm
09:34 PM 72.9°F22.7°C 67.5°F19.7°C 83% 2.9 mph W4.7 kmh W 4.9 mph7.9 kmh 29.86 in1011.2 mb 0.00 in0.0 mm 0.00 in0.0 mm 0.00 in0.0 mm
09:44 PM 72.5°F22.5°C 67.5°F19.7°C 84% 0.9 mph WSW1.4 kmh WSW 4.0 mph6.4 kmh 29.86 in1011.2 mb 0.00 in0.0 mm 0.00 in0.0 mm 0.00 in0.0 mm
09:54 PM 72.3°F22.4°C 67.3°F19.6°C 84% Calm Calm 2.0 mph3.2 kmh 29.87 in1011.5 mb 0.00 in0.0 mm 0.00 in0.0 mm 0.00 in0.0 mm
10:04 PM 72.1°F22.3°C 67.5°F19.7°C 85% 0.9 mph WNW1.4 kmh WNW 3.0 mph4.8 kmh 29.88 in1011.9 mb 0.00 in0.0 mm 0.00 in0.0 mm 0.00 in0.0 mm
10:14 PM 72.1°F22.3°C 67.5°F19.7°C 85% 0.9 mph SW1.4 kmh SW 2.9 mph4.7 kmh 29.88 in1011.9 mb 0.00 in0.0 mm 0.00 in0.0 mm 0.00 in0.0 mm
10:24 PM 72.1°F22.3°C 67.5°F19.7°C 85% 0.9 mph SW1.4 kmh SW 2.0 mph3.2 kmh 29.88 in1011.9 mb 0.00 in0.0 mm 0.00 in0.0 mm 0.00 in0.0 mm
10:34 PM 72.1°F22.3°C 67.5°F19.7°C 85% 0.9 mph WSW1.4 kmh WSW 2.9 mph4.7 kmh 29.87 in1011.5 mb 0.00 in0.0 mm 0.00 in0.0 mm 0.00 in0.0 mm
10:44 PM 72.0°F22.2°C 67.3°F19.6°C 85% 0.9 mph WSW1.4 kmh WSW 2.9 mph4.7 kmh 29.87 in1011.5 mb 0.00 in0.0 mm 0.00 in0.0 mm 0.00 in0.0 mm
10:54 PM 72.0°F22.2°C 67.3°F19.6°C 85% 0.9 mph W1.4 kmh W 2.9 mph4.7 kmh 29.87 in1011.5 mb 0.00 in0.0 mm 0.00 in0.0 mm 0.00 in0.0 mm
11:05 PM 72.0°F22.2°C 67.3°F19.6°C 85% Calm Calm 2.0 mph3.2 kmh 29.87 in1011.5 mb 0.00 in0.0 mm 0.00 in0.0 mm 0.00 in0.0 mm
11:15 PM 72.0°F22.2°C 66.9°F19.4°C 84% Calm Calm -- 29.86 in1011.2 mb 0.00 in0.0 mm 0.00 in0.0 mm 0.00 in0.0 mm
11:25 PM 72.0°F22.2°C 66.9°F19.4°C 84% Calm Calm -- 29.86 in1011.2 mb 0.00 in0.0 mm 0.00 in0.0 mm 0.00 in0.0 mm
11:35 PM 71.8°F22.1°C 66.7°F19.3°C 84% Calm Calm -- 29.86 in1011.2 mb 0.00 in0.0 mm 0.00 in0.0 mm 0.00 in0.0 mm
11:45 PM 71.8°F22.1°C 66.4°F19.1°C 83% Calm Calm -- 29.85 in1010.8 mb 0.00 in0.0 mm 0.00 in0.0 mm 0.00 in0.0 mm
11:55 PM 71.8°F22.1°C 66.4°F19.1°C 83% Calm Calm -- 29.85 in1010.8 mb 0.00 in0.0 mm 0.00 in0.0 mm 0.00 in0.0 mm